Time;durP1;ratioP1;P1;durP2;ratioP2;P2;SDS_P1;SDS_P2;PMS_P1;PMS_P2;Temp;Humidity;BMP_temperature;BMP_pressure;BME280_temperature;BME280_humidity;BME280_pressure;Samples;Min_cycle;Max_cycle;Signal;HPM_P1;HPM_P2
2021/05/06 00:02:15;;;;;;;15.70;2.60;;;37.50;12.30;;;;;;5045786;28;20140;-59
2021/05/06 00:07:58;;;;;;;15.02;2.25;;;37.50;12.80;;;;;;5099324;28;20151;-58
2021/05/06 00:32:30;;;;;;;12.27;1.77;;;37.10;12.40;;;;;;5095710;28;20136;-59
2021/05/06 00:34:57;;;;;;;12.35;2.25;;;37.00;12.00;;;;;;5093966;28;20087;-57
2021/05/06 00:37:24;;;;;;;7.22;2.35;;;36.90;11.80;;;;;;5097474;28;20076;-59
2021/05/06 01:06:21;;;;;;;9.15;1.95;;;36.00;13.30;;;;;;5095765;28;20068;-54
2021/05/06 01:08:57;;;;;;;12.18;2.05;;;36.00;13.10;;;;;;5078176;28;20111;-56
2021/05/06 01:13:53;;;;;;;11.30;1.85;;;35.90;12.50;;;;;;5092259;28;20417;-57
2021/05/06 01:16:20;;;;;;;12.43;1.90;;;35.80;12.90;;;;;;5093871;28;20517;-57
2021/05/06 01:18:46;;;;;;;14.57;2.42;;;35.80;13.00;;;;;;5096284;28;20457;-61
2021/05/06 01:21:13;;;;;;;17.27;2.60;;;35.60;13.10;;;;;;5091859;28;20100;-59
2021/05/06 01:23:42;;;;;;;11.82;2.10;;;35.60;13.70;;;;;;5097140;28;20073;-59
2021/05/06 01:26:17;;;;;;;17.65;2.28;;;35.50;13.90;;;;;;5079160;28;20117;-58
2021/05/06 01:28:46;;;;;;;20.45;2.38;;;35.40;13.80;;;;;;5078911;28;20167;-59
2021/05/06 01:31:19;;;;;;;11.63;2.67;;;35.40;13.90;;;;;;5098807;28;20182;-58
2021/05/06 01:34:03;;;;;;;11.82;2.65;;;35.30;15.50;;;;;;5100433;28;20084;-59
2021/05/06 01:36:35;;;;;;;9.30;2.15;;;35.30;15.40;;;;;;5092337;28;20430;-61
2021/05/06 01:39:19;;;;;;;13.05;2.42;;;35.50;15.00;;;;;;5091191;28;20112;-59
2021/05/06 02:00:23;;;;;;;17.92;2.97;;;34.60;15.40;;;;;;5100081;28;20154;-55
2021/05/06 02:02:50;;;;;;;13.52;2.60;;;34.40;15.50;;;;;;5076910;28;20440;-56
2021/05/06 02:05:18;;;;;;;12.90;2.70;;;34.10;15.40;;;;;;5076750;28;20514;-54
2021/05/06 02:07:46;;;;;;;10.95;2.85;;;34.00;16.20;;;;;;5099066;28;20174;-56
2021/05/06 02:10:16;;;;;;;19.40;3.05;;;33.90;15.90;;;;;;5095116;28;20091;-57
2021/05/06 02:12:43;;;;;;;11.95;2.50;;;33.80;16.30;;;;;;5094817;28;20077;-55
2021/05/06 02:15:16;;;;;;;18.13;3.05;;;33.70;16.00;;;;;;5091555;28;20107;-57
2021/05/06 02:17:44;;;;;;;18.02;3.30;;;33.60;16.20;;;;;;5094153;28;20170;-57
2021/05/06 02:20:11;;;;;;;17.77;3.22;;;33.50;16.40;;;;;;5090373;28;20237;-58
2021/05/06 02:22:38;;;;;;;17.13;3.33;;;33.30;17.00;;;;;;5099947;28;20146;-57
2021/05/06 02:25:06;;;;;;;21.17;3.28;;;33.20;17.10;;;;;;5091535;28;20081;-57
2021/05/06 02:27:33;;;;;;;20.45;3.80;;;33.20;17.00;;;;;;5096553;28;20073;-58
2021/05/06 02:29:59;;;;;;;20.70;3.65;;;33.10;17.40;;;;;;5075954;28;20236;-59
2021/05/06 02:32:28;;;;;;;32.05;4.50;;;33.00;17.40;;;;;;5093810;28;20103;-57
2021/05/06 02:34:58;;;;;;;22.30;3.83;;;33.00;17.60;;;;;;5093627;28;20085;-58
2021/05/06 02:37:26;;;;;;;22.33;4.10;;;32.90;17.90;;;;;;5097651;28;20076;-59
2021/05/06 02:39:53;;;;;;;25.17;3.65;;;32.80;18.00;;;;;;5095912;28;20081;-62
2021/05/06 02:42:20;;;;;;;22.02;3.83;;;32.70;18.00;;;;;;5095511;28;20080;-59
2021/05/06 02:44:47;;;;;;;27.45;3.95;;;32.60;18.10;;;;;;5093581;28;20079;-56
2021/05/06 02:47:14;;;;;;;36.72;3.80;;;32.60;18.80;;;;;;5092315;28;20103;-59
2021/05/06 02:49:45;;;;;;;16.58;3.78;;;32.50;18.20;;;;;;5093641;28;20076;-58
2021/05/06 02:54:53;;;;;;;31.47;4.10;;;32.30;18.30;;;;;;5094697;28;20440;-58
2021/05/06 02:57:34;;;;;;;29.27;4.22;;;32.30;18.60;;;;;;5093771;28;20544;-57
2021/05/06 03:02:50;;;;;;;28.88;4.25;;;32.10;18.90;;;;;;5093329;28;20122;-59
2021/05/06 03:05:22;;;;;;;23.25;4.03;;;32.10;19.00;;;;;;5093924;28;20076;-57
2021/05/06 03:10:41;;;;;;;28.40;4.93;;;31.90;19.30;;;;;;5095591;28;20428;-59
2021/05/06 03:23:58;;;;;;;41.28;9.57;;;31.60;20.20;;;;;;5097944;28;20516;-58
2021/05/06 03:26:24;;;;;;;34.80;10.00;;;31.50;20.30;;;;;;5096020;28;20507;-57
2021/05/06 03:28:55;;;;;;;34.25;10.68;;;31.40;20.50;;;;;;5098183;28;20667;-55
2021/05/06 03:42:26;;;;;;;33.67;8.18;;;31.10;21.30;;;;;;5097778;28;20083;-58
2021/05/06 03:45:09;;;;;;;45.45;9.57;;;31.10;21.60;;;;;;5095285;28;20076;-57
2021/05/06 03:50:33;;;;;;;51.33;9.95;;;30.90;22.30;;;;;;5100053;28;20084;-55
2021/05/06 04:28:30;;;;;;;53.53;7.07;;;29.80;24.20;;;;;;5092264;28;20171;-61
2021/05/06 04:38:50;;;;;;;36.50;7.80;;;29.60;25.00;;;;;;5088718;28;20183;-58
2021/05/06 04:41:33;;;;;;;53.47;7.60;;;29.50;25.00;;;;;;5091601;28;20122;-61
2021/05/06 04:55:07;;;;;;;56.42;9.05;;;29.10;25.40;;;;;;5093970;28;20552;-58
2021/05/06 05:05:40;;;;;;;59.80;10.50;;;29.00;25.90;;;;;;5009785;28;20195;-58
2021/05/06 05:08:11;;;;;;;46.30;9.60;;;28.90;25.90;;;;;;5099126;28;20597;-59
2021/05/06 05:10:47;;;;;;;53.30;10.70;;;28.80;26.00;;;;;;5095991;28;20077;-56
2021/05/06 05:24:19;;;;;;;47.38;9.65;;;28.40;26.30;;;;;;5096191;28;20083;-59
2021/05/06 05:26:46;;;;;;;42.05;9.15;;;28.30;26.50;;;;;;5094168;28;20072;-58
2021/05/06 05:29:13;;;;;;;46.80;10.27;;;28.20;27.20;;;;;;5083636;28;20486;-59
2021/05/06 05:31:46;;;;;;;45.35;8.75;;;28.20;27.10;;;;;;5091223;28;20091;-59
2021/05/06 05:34:57;;;;;;;37.70;9.70;;;28.10;27.30;;;;;;5095388;28;20079;-58
2021/05/06 05:37:02;;;;;;;42.08;10.15;;;28.00;27.30;;;;;;5085459;28;20537;-59
2021/05/06 05:55:35;;;;;;;55.60;9.55;;;27.50;28.40;;;;;;5090937;28;20155;-59
2021/05/06 05:58:02;;;;;;;46.22;10.00;;;27.40;28.40;;;;;;5096396;28;20100;-55
2021/05/06 06:00:28;;;;;;;42.60;9.27;;;27.30;28.30;;;;;;5093292;28;20161;-56
2021/05/06 06:02:55;;;;;;;57.30;8.63;;;27.30;28.30;;;;;;5091492;28;20530;-57
2021/05/06 06:05:23;;;;;;;56.88;9.00;;;27.40;28.70;;;;;;5091815;28;20077;-58
2021/05/06 06:07:50;;;;;;;50.15;8.95;;;27.40;28.70;;;;;;5096511;28;20128;-57
2021/05/06 06:10:16;;;;;;;48.65;9.70;;;27.30;28.60;;;;;;5090996;28;20181;-56
2021/05/06 06:12:43;;;;;;;47.60;9.40;;;27.20;28.50;;;;;;5095513;28;20108;-57
2021/05/06 06:15:16;;;;;;;54.10;9.70;;;27.20;29.00;;;;;;5094086;28;20073;-58
2021/05/06 06:17:45;;;;;;;46.28;9.70;;;27.30;29.10;;;;;;5092587;28;20089;-57
2021/05/06 06:20:12;;;;;;;56.08;9.88;;;27.20;29.00;;;;;;5089546;28;20073;-57
2021/05/06 06:22:38;;;;;;;43.65;9.10;;;27.30;29.00;;;;;;5094355;28;20069;-57
2021/05/06 06:25:05;;;;;;;44.33;9.30;;;27.30;29.40;;;;;;5093992;28;20173;-56
2021/05/06 06:27:32;;;;;;;42.45;9.55;;;27.20;29.30;;;;;;5089418;28;20065;-58
2021/05/06 06:30:00;;;;;;;37.05;9.05;;;27.20;29.30;;;;;;5090968;28;20108;-58
2021/05/06 06:32:26;;;;;;;49.30;10.20;;;27.10;29.50;;;;;;5094792;28;20281;-57
2021/05/06 06:34:53;;;;;;;47.95;9.55;;;27.10;29.50;;;;;;5093888;28;20436;-58
2021/05/06 06:37:19;;;;;;;48.72;10.23;;;27.10;29.70;;;;;;5090449;28;20092;-57
2021/05/06 06:39:46;;;;;;;48.15;9.60;;;27.10;29.80;;;;;;5094419;28;20084;-57
2021/05/06 06:42:12;;;;;;;30.30;8.80;;;27.10;29.50;;;;;;5092226;28;20076;-55
2021/05/06 06:44:39;;;;;;;50.47;9.88;;;26.90;29.60;;;;;;5095169;28;20589;-57
2021/05/06 06:47:08;;;;;;;44.28;9.00;;;26.90;29.20;;;;;;5095925;28;20104;-58
2021/05/06 06:49:38;;;;;;;43.63;9.25;;;26.80;29.50;;;;;;5090632;28;20490;-59
2021/05/06 06:52:10;;;;;;;39.25;8.90;;;26.90;29.40;;;;;;5092268;28;20421;-58
2021/05/06 06:54:38;;;;;;;54.15;9.10;;;26.80;29.40;;;;;;5091335;28;20076;-57
2021/05/06 06:57:05;;;;;;;41.03;8.60;;;26.80;29.70;;;;;;5088569;28;20432;-58
2021/05/06 06:59:31;;;;;;;37.83;9.30;;;26.70;29.80;;;;;;5089415;28;20180;-58
2021/05/06 07:01:58;;;;;;;46.05;9.38;;;26.70;29.60;;;;;;5093933;28;20526;-59
2021/05/06 07:04:24;;;;;;;38.47;8.38;;;26.60;29.90;;;;;;5092596;28;20092;-54
2021/05/06 07:06:51;;;;;;;38.35;8.52;;;26.60;30.30;;;;;;5090080;28;20077;-58
2021/05/06 07:09:18;;;;;;;26.52;7.18;;;26.60;30.10;;;;;;5073767;28;20075;-59
2021/05/06 07:11:44;;;;;;;45.83;8.32;;;26.50;29.90;;;;;;5092038;28;20073;-58
2021/05/06 07:14:11;;;;;;;34.83;7.70;;;26.50;30.10;;;;;;5094450;28;20086;-55
2021/05/06 07:16:40;;;;;;;32.83;6.88;;;26.40;30.40;;;;;;5093251;28;20093;-55
2021/05/06 07:19:06;;;;;;;28.23;5.90;;;26.40;30.20;;;;;;5089870;28;20135;-59
2021/05/06 07:21:33;;;;;;;36.15;6.03;;;26.30;30.10;;;;;;5090027;28;20079;-58
2021/05/06 07:24:00;;;;;;;39.45;6.88;;;26.30;30.10;;;;;;5091023;28;20613;-57
2021/05/06 07:26:27;;;;;;;28.88;5.43;;;26.30;30.30;;;;;;5091932;28;20155;-58
2021/05/06 07:28:53;;;;;;;29.45;5.95;;;26.30;30.30;;;;;;5090327;28;20418;-59
2021/05/06 07:31:21;;;;;;;29.75;5.90;;;26.20;30.50;;;;;;5093831;28;20161;-56
2021/05/06 07:33:49;;;;;;;26.05;5.28;;;26.30;30.80;;;;;;5093425;28;20072;-57
2021/05/06 07:36:19;;;;;;;25.73;5.18;;;26.20;31.30;;;;;;5089707;28;20489;-57
2021/05/06 07:38:46;;;;;;;19.35;4.03;;;26.20;31.60;;;;;;5089851;28;20114;-57
2021/05/06 07:41:13;;;;;;;30.15;5.07;;;26.20;31.90;;;;;;5089354;28;20075;-58
2021/05/06 07:43:43;;;;;;;29.25;5.22;;;26.20;32.10;;;;;;5091072;28;20084;-57
2021/05/06 07:46:10;;;;;;;31.70;5.47;;;26.20;32.30;;;;;;5092409;28;20584;-57
2021/05/06 07:48:37;;;;;;;38.28;5.85;;;26.20;32.50;;;;;;5092596;28;20114;-57
2021/05/06 07:51:05;;;;;;;24.80;5.90;;;26.20;32.50;;;;;;5094934;28;20061;-56
2021/05/06 07:54:05;;;;;;;31.13;6.43;;;26.10;32.60;;;;;;5086971;28;20081;-55
2021/05/06 07:56:24;;;;;;;33.13;6.70;;;26.10;32.80;;;;;;5087942;28;20108;-57
2021/05/06 07:58:53;;;;;;;33.97;7.68;;;26.10;33.50;;;;;;5074590;28;20164;-54
2021/05/06 08:01:19;;;;;;;38.08;9.98;;;26.00;33.90;;;;;;5091118;28;20069;-57
2021/05/06 08:03:46;;;;;;;43.75;11.80;;;26.00;34.80;;;;;;5093009;28;20081;-54
2021/05/06 08:06:13;;;;;;;46.13;15.10;;;25.90;35.70;;;;;;5091581;28;20069;-53
2021/05/06 08:08:40;;;;;;;37.72;15.98;;;25.80;36.50;;;;;;5089506;28;20163;-54
2021/05/06 08:11:09;;;;;;;47.35;18.52;;;25.80;37.40;;;;;;5090247;28;20076;-57
2021/05/06 08:13:36;;;;;;;52.92;19.83;;;25.80;38.30;;;;;;5089744;28;20167;-58
2021/05/06 08:16:02;;;;;;;57.83;18.85;;;25.70;38.90;;;;;;5093712;28;20080;-57
2021/05/06 08:18:29;;;;;;;45.78;16.90;;;25.60;39.50;;;;;;5071658;28;20108;-54
2021/05/06 08:20:55;;;;;;;55.47;15.43;;;25.60;39.90;;;;;;5091863;28;20108;-57
2021/05/06 08:23:22;;;;;;;44.45;12.98;;;25.50;40.10;;;;;;5090303;28;20159;-55
2021/05/06 08:25:49;;;;;;;36.65;13.00;;;25.40;40.20;;;;;;5090484;28;20065;-56
2021/05/06 08:28:16;;;;;;;43.38;12.95;;;25.40;40.20;;;;;;5090785;28;20214;-57
2021/05/06 08:30:43;;;;;;;31.17;11.48;;;25.40;40.30;;;;;;5094167;28;20275;-53
2021/05/06 08:33:11;;;;;;;36.35;10.30;;;25.30;40.30;;;;;;5094863;28;20160;-53
2021/05/06 08:35:37;;;;;;;46.83;12.07;;;25.20;40.60;;;;;;5095538;28;20080;-56
2021/05/06 08:38:04;;;;;;;43.53;11.00;;;25.30;40.80;;;;;;5096308;28;20095;-57
2021/05/06 08:40:31;;;;;;;44.10;10.68;;;25.20;40.80;;;;;;5092943;28;20073;-54
2021/05/06 08:42:57;;;;;;;29.33;9.68;;;25.10;40.90;;;;;;5074312;28;20073;-56
2021/05/06 08:45:31;;;;;;;39.30;10.20;;;25.10;40.90;;;;;;5094817;28;20088;-55
2021/05/06 08:47:58;;;;;;;39.47;9.48;;;25.00;41.20;;;;;;5092359;28;20166;-54
2021/05/06 08:50:25;;;;;;;34.55;9.77;;;25.00;41.60;;;;;;5091754;28;20069;-52
2021/05/06 08:52:53;;;;;;;32.80;9.00;;;25.00;41.80;;;;;;5093860;28;20079;-52
2021/05/06 08:55:19;;;;;;;37.08;10.27;;;24.90;41.80;;;;;;5099827;28;20519;-53
2021/05/06 08:57:46;;;;;;;39.67;9.13;;;24.90;42.30;;;;;;5094163;28;20072;-56
2021/05/06 09:00:13;;;;;;;29.48;8.07;;;24.90;42.70;;;;;;5095277;28;20080;-57
2021/05/06 09:02:47;;;;;;;22.58;6.78;;;24.80;42.90;;;;;;5093640;28;20487;-55
2021/05/06 09:05:14;;;;;;;26.73;6.68;;;24.70;43.30;;;;;;5092817;28;20091;-55
2021/05/06 09:07:45;;;;;;;32.38;7.43;;;24.70;43.70;;;;;;5093174;28;20171;-56
2021/05/06 09:10:34;;;;;;;27.38;6.55;;;24.70;43.70;;;;;;5077571;28;20104;-58
2021/05/06 09:13:01;;;;;;;26.30;7.53;;;24.60;43.70;;;;;;5077562;28;20104;-55
2021/05/06 09:15:28;;;;;;;32.15;7.75;;;24.70;43.90;;;;;;5094758;28;20130;-58
2021/05/06 09:17:55;;;;;;;33.47;8.20;;;24.60;44.00;;;;;;5099085;28;20088;-56
2021/05/06 09:20:24;;;;;;;26.63;8.27;;;24.50;44.10;;;;;;5097387;28;20080;-54
2021/05/06 09:22:56;;;;;;;33.85;9.35;;;24.50;44.20;;;;;;5091421;28;20088;-54
2021/05/06 09:25:31;;;;;;;29.25;8.90;;;24.50;44.20;;;;;;5091639;28;20069;-57
2021/05/06 09:28:07;;;;;;;30.40;9.55;;;24.50;44.20;;;;;;5094933;28;20443;-53
2021/05/06 09:30:37;;;;;;;29.83;10.25;;;24.40;43.90;;;;;;5093444;28;20080;-54
2021/05/06 09:33:09;;;;;;;38.45;11.95;;;24.50;43.90;;;;;;5095424;28;20065;-55
2021/05/06 09:35:46;;;;;;;37.88;13.05;;;24.50;43.90;;;;;;5095834;28;20088;-55
2021/05/06 09:38:27;;;;;;;;;;;24.40;43.70;;;;;;5078885;28;20446;-55
2021/05/06 09:40:54;;;;;;;44.30;15.23;;;24.40;43.60;;;;;;5092055;28;19964;-57
2021/05/06 09:43:31;;;;;;;51.72;14.88;;;24.40;43.80;;;;;;5093701;28;20103;-63
2021/05/06 09:45:59;;;;;;;49.95;16.65;;;24.50;43.70;;;;;;5094497;28;20133;-56
2021/05/06 09:48:27;;;;;;;48.65;16.33;;;24.50;43.80;;;;;;5094666;28;20561;-57
2021/05/06 09:51:04;;;;;;;40.72;15.60;;;24.50;43.60;;;;;;5094286;28;20116;-57
2021/05/06 09:53:32;;;;;;;45.35;16.88;;;24.50;43.60;;;;;;5074720;28;20068;-54
2021/05/06 09:56:01;;;;;;;48.35;16.55;;;24.40;43.40;;;;;;5094773;28;20481;-57
2021/05/06 09:58:31;;;;;;;39.92;13.73;;;24.40;43.50;;;;;;5094017;28;20124;-55
2021/05/06 10:01:08;;;;;;;36.47;12.68;;;24.30;43.70;;;;;;5093580;28;20127;-59
2021/05/06 10:03:34;;;;;;;30.73;10.45;;;24.30;43.80;;;;;;5093114;28;20095;-53
2021/05/06 10:06:30;;;;;;;35.63;10.52;;;24.30;43.80;;;;;;5092640;28;20085;-54
2021/05/06 10:09:03;;;;;;;32.38;9.45;;;24.20;44.00;;;;;;5075229;28;20088;-53
2021/05/06 10:11:29;;;;;;;42.25;10.07;;;24.20;44.00;;;;;;5093311;28;20084;-57
2021/05/06 10:13:58;;;;;;;26.55;7.18;;;24.10;44.40;;;;;;5091702;28;20087;-53
2021/05/06 10:16:24;;;;;;;36.10;7.97;;;24.10;44.80;;;;;;5092468;28;20160;-58
2021/05/06 10:18:51;;;;;;;30.23;7.13;;;24.10;45.20;;;;;;5090599;28;20195;-57
2021/05/06 10:21:19;;;;;;;30.80;7.50;;;24.10;44.80;;;;;;5092866;28;20505;-54
2021/05/06 10:23:49;;;;;;;33.92;7.88;;;24.10;45.00;;;;;;5093994;28;20459;-56
2021/05/06 10:26:18;;;;;;;22.65;6.72;;;24.10;45.30;;;;;;5093679;28;20081;-57
2021/05/06 10:28:45;;;;;;;28.83;6.18;;;24.00;45.10;;;;;;5100647;28;20191;-57
2021/05/06 10:31:12;;;;;;;24.40;6.40;;;23.80;45.50;;;;;;5089513;28;20104;-58
2021/05/06 10:33:42;;;;;;;27.38;6.80;;;23.80;45.90;;;;;;5092449;28;20073;-58
2021/05/06 10:36:10;;;;;;;19.58;6.82;;;23.70;46.30;;;;;;5076856;28;20081;-56
2021/05/06 10:38:39;;;;;;;20.98;5.90;;;23.60;46.60;;;;;;5093369;28;20103;-53
2021/05/06 10:41:41;;;;;;;23.17;6.03;;;23.60;47.20;;;;;;5091728;28;20538;-53
2021/05/06 10:44:10;;;;;;;22.33;5.75;;;23.60;47.80;;;;;;5009280;28;20133;-56
2021/05/06 10:47:02;;;;;;;19.75;4.97;;;23.60;47.80;;;;;;5077926;28;20083;-52
2021/05/06 10:49:38;;;;;;;18.83;4.47;;;23.50;48.10;;;;;;5092449;28;20080;-56
2021/05/06 10:52:07;;;;;;;15.80;4.63;;;23.50;49.00;;;;;;5092200;28;20493;-56
2021/05/06 10:54:45;;;;;;;21.38;4.78;;;23.50;49.40;;;;;;5092707;28;20145;-53
2021/05/06 10:57:15;;;;;;;25.67;4.75;;;23.50;49.40;;;;;;5095363;28;20076;-55
2021/05/06 10:59:46;;;;;;;21.50;5.25;;;23.50;49.50;;;;;;5094099;28;20548;-57
2021/05/06 11:02:44;;;;;;;19.65;5.10;;;23.40;50.00;;;;;;5088122;28;20439;-52
2021/05/06 11:05:32;;;;;;;15.35;4.03;;;23.30;50.60;;;;;;5095803;28;20076;-54
2021/05/06 11:08:05;;;;;;;22.35;4.70;;;23.30;50.90;;;;;;5094847;28;20077;-55
2021/05/06 11:10:51;;;;;;;21.38;4.22;;;23.20;51.40;;;;;;5093316;28;20862;-55
2021/05/06 11:13:23;;;;;;;20.38;4.25;;;23.20;51.50;;;;;;5094850;28;20077;-57
2021/05/06 11:15:50;;;;;;;24.88;4.97;;;23.20;51.90;;;;;;5089402;28;20092;-55
2021/05/06 11:18:50;;;;;;;24.15;4.85;;;23.10;52.00;;;;;;5091601;28;20191;-53
2021/05/06 11:21:36;;;;;;;23.10;4.55;;;23.10;52.20;;;;;;5089736;28;20069;-52
2021/05/06 11:24:20;;;;;;;23.33;4.75;;;23.10;52.40;;;;;;5089498;28;20091;-56
2021/05/06 11:27:16;;;;;;;22.92;4.80;;;23.20;52.50;;;;;;5092833;28;20104;-54
2021/05/06 11:29:43;;;;;;;17.67;4.50;;;23.10;52.50;;;;;;5093861;28;20154;-57
2021/05/06 11:32:33;;;;;;;18.45;4.53;;;23.10;53.00;;;;;;5092904;28;20092;-55
2021/05/06 11:35:00;;;;;;;22.10;4.95;;;23.10;53.10;;;;;;5071755;28;20103;-56
2021/05/06 11:37:29;;;;;;;22.90;4.20;;;23.10;53.40;;;;;;5091979;28;20069;-55
2021/05/06 11:40:16;;;;;;;21.65;4.65;;;23.00;53.40;;;;;;5090999;28;20096;-55
2021/05/06 11:42:42;;;;;;;17.42;4.00;;;22.90;53.70;;;;;;5089885;28;20450;-57
2021/05/06 11:45:28;;;;;;;15.45;4.10;;;22.90;54.30;;;;;;5092948;28;20081;-54
2021/05/06 11:47:57;;;;;;;23.60;4.55;;;22.90;54.30;;;;;;5092702;28;20123;-56
2021/05/06 11:50:24;;;;;;;12.13;4.10;;;22.90;54.50;;;;;;5094705;28;20156;-56
2021/05/06 11:52:51;;;;;;;23.13;5.30;;;22.90;54.30;;;;;;5090409;28;20068;-56
2021/05/06 11:55:35;;;;;;;18.85;4.32;;;22.80;54.80;;;;;;5089928;28;20073;-54
2021/05/06 11:58:02;;;;;;;17.38;4.25;;;22.80;55.10;;;;;;5093086;28;20549;-55
2021/05/06 12:00:30;;;;;;;22.27;4.88;;;22.70;55.20;;;;;;5088653;28;20533;-58
2021/05/06 12:03:08;;;;;;;22.48;5.07;;;22.70;55.50;;;;;;5096238;28;20511;-56
2021/05/06 12:05:55;;;;;;;19.73;5.03;;;22.70;55.80;;;;;;5099129;28;20523;-54
2021/05/06 12:08:25;;;;;;;20.27;5.10;;;22.70;55.70;;;;;;5102309;28;20217;-59
2021/05/06 12:10:53;;;;;;;16.55;4.63;;;22.80;55.60;;;;;;5098903;28;20092;-56
2021/05/06 12:13:32;;;;;;;26.67;5.13;;;22.70;55.20;;;;;;5099786;28;20075;-59
2021/05/06 12:16:28;;;;;;;25.38;5.57;;;22.60;55.60;;;;;;5101984;28;20485;-54
2021/05/06 12:19:12;;;;;;;26.50;5.60;;;22.70;55.30;;;;;;5064367;28;20236;-56
2021/05/06 12:21:47;;;;;;;25.65;5.65;;;22.60;55.20;;;;;;5096603;28;20072;-56
2021/05/06 12:24:32;;;;;;;26.13;6.05;;;22.60;55.50;;;;;;5095316;28;20175;-55
2021/05/06 12:27:13;;;;;;;18.23;5.95;;;22.50;55.90;;;;;;5099994;28;20074;-56
2021/05/06 12:29:40;;;;;;;29.38;6.03;;;22.50;56.10;;;;;;5098896;28;20600;-58
2021/05/06 12:32:07;;;;;;;20.95;5.05;;;22.50;56.40;;;;;;5096426;28;20077;-58
2021/05/06 12:34:35;;;;;;;26.40;5.63;;;22.60;55.70;;;;;;5097237;28;20073;-59
2021/05/06 12:37:02;;;;;;;26.48;5.93;;;22.50;55.60;;;;;;5076529;28;20072;-56
2021/05/06 12:39:30;;;;;;;28.88;6.82;;;22.50;56.10;;;;;;5096086;28;20137;-56
2021/05/06 12:42:05;;;;;;;22.30;5.47;;;22.40;55.90;;;;;;5095042;28;20072;-56
2021/05/06 12:44:43;;;;;;;24.50;5.43;;;22.30;56.30;;;;;;5096792;28;20082;-57
2021/05/06 12:47:30;;;;;;;27.80;5.63;;;22.20;57.50;;;;;;5099435;28;20149;-54
2021/05/06 12:50:19;;;;;;;19.65;4.15;;;22.20;58.10;;;;;;5098527;28;20146;-58
2021/05/06 12:52:54;;;;;;;27.70;4.30;;;22.20;58.20;;;;;;5101288;28;20416;-56
2021/05/06 12:55:30;;;;;;;23.80;4.38;;;22.00;59.40;;;;;;5096935;28;20076;-58
2021/05/06 12:58:16;;;;;;;21.63;4.20;;;22.00;59.80;;;;;;5098231;28;20088;-55
2021/05/06 13:01:02;;;;;;;22.65;3.97;;;22.00;60.20;;;;;;5096120;28;20483;-54
2021/05/06 13:03:43;;;;;;;22.05;4.50;;;21.90;60.70;;;;;;5098221;28;20605;-53
2021/05/06 13:06:17;;;;;;;23.33;4.20;;;21.80;61.30;;;;;;5079985;28;20068;-55
2021/05/06 13:08:46;;;;;;;19.63;3.95;;;21.70;62.20;;;;;;5095253;28;20080;-54
2021/05/06 13:11:21;;;;;;;15.15;3.88;;;21.70;62.50;;;;;;5100969;28;20076;-56
2021/05/06 13:13:49;;;;;;;17.00;3.70;;;21.70;62.80;;;;;;5095697;28;20063;-55
2021/05/06 13:16:54;;;;;;;11.88;3.22;;;21.60;63.60;;;;;;5093477;28;20521;-55
2021/05/06 13:19:21;;;;;;;17.60;4.25;;;21.60;63.60;;;;;;5094945;28;20490;-58
2021/05/06 13:21:54;;;;;;;22.98;3.63;;;21.60;63.20;;;;;;5094831;28;20068;-56
2021/05/06 13:24:20;;;;;;;15.48;3.17;;;21.70;61.70;;;;;;5091996;28;20163;-57
2021/05/06 13:26:47;;;;;;;11.15;2.80;;;21.70;60.00;;;;;;5090719;28;20085;-56
2021/05/06 13:29:16;;;;;;;14.73;3.03;;;21.70;59.20;;;;;;5095969;28;20080;-54
2021/05/06 13:31:45;;;;;;;18.83;3.60;;;21.70;55.80;;;;;;5094710;28;20121;-54
2021/05/06 13:34:27;;;;;;;19.15;4.03;;;21.70;54.10;;;;;;5092488;28;20163;-55
2021/05/06 13:37:03;;;;;;;23.30;3.50;;;21.70;53.30;;;;;;5091274;28;20136;-54
2021/05/06 13:39:31;;;;;;;22.73;3.97;;;21.70;52.90;;;;;;5091059;28;20666;-53
2021/05/06 13:41:59;;;;;;;19.25;4.13;;;21.80;52.70;;;;;;5094110;28;20077;-55
2021/05/06 13:44:29;;;;;;;16.77;3.78;;;21.80;52.40;;;;;;5095833;28;20080;-55
2021/05/06 13:46:57;;;;;;;24.02;4.25;;;21.90;51.70;;;;;;5094934;28;20072;-57
2021/05/06 13:49:30;;;;;;;23.63;3.72;;;21.90;51.30;;;;;;5093053;28;20125;-53
2021/05/06 13:51:58;;;;;;;23.05;3.60;;;22.00;51.60;;;;;;5091790;28;20068;-56
2021/05/06 13:54:27;;;;;;;13.02;2.70;;;22.00;52.30;;;;;;5095960;28;20083;-59
2021/05/06 13:56:56;;;;;;;19.17;3.10;;;22.10;52.50;;;;;;5097327;28;20098;-57
2021/05/06 13:59:22;;;;;;;23.48;4.15;;;22.20;53.40;;;;;;5097616;28;20575;-54
2021/05/06 14:01:53;;;;;;;21.90;3.50;;;22.10;54.10;;;;;;5094676;28;20060;-56
2021/05/06 14:04:21;;;;;;;18.67;3.65;;;22.20;54.70;;;;;;5091696;28;20080;-58
2021/05/06 14:06:47;;;;;;;21.85;3.53;;;22.30;55.00;;;;;;5095134;28;20079;-57
2021/05/06 14:09:18;;;;;;;18.70;3.60;;;22.30;55.10;;;;;;5093975;28;20429;-53
2021/05/06 14:11:46;;;;;;;20.92;4.20;;;22.40;54.90;;;;;;5092107;28;20093;-57
2021/05/06 14:14:14;;;;;;;23.10;4.07;;;22.50;55.00;;;;;;5094975;28;20076;-57
2021/05/06 14:16:41;;;;;;;20.45;4.38;;;22.50;55.10;;;;;;5101660;28;20068;-57
2021/05/06 14:19:09;;;;;;;18.92;4.03;;;22.60;55.10;;;;;;5096101;28;20184;-57
2021/05/06 14:21:36;;;;;;;22.25;4.72;;;22.70;55.30;;;;;;5084404;28;20406;-58
2021/05/06 14:24:04;;;;;;;25.95;4.78;;;22.80;55.90;;;;;;5090621;28;20513;-58
2021/05/06 14:26:31;;;;;;;24.95;4.63;;;22.90;56.60;;;;;;5094671;28;20071;-58
2021/05/06 14:28:58;;;;;;;29.85;4.88;;;23.00;56.60;;;;;;5098895;28;20083;-59
2021/05/06 14:31:24;;;;;;;28.63;4.35;;;23.10;57.50;;;;;;5096587;28;20119;-57
2021/05/06 14:33:50;;;;;;;17.80;3.50;;;23.30;57.20;;;;;;5095212;28;20142;-54
2021/05/06 14:36:17;;;;;;;24.38;4.65;;;23.40;57.20;;;;;;5096626;28;20084;-54
2021/05/06 14:38:44;;;;;;;31.10;4.90;;;23.40;57.00;;;;;;5091584;28;20154;-55
2021/05/06 14:41:11;;;;;;;24.95;4.38;;;23.60;56.80;;;;;;5096640;28;20076;-60
2021/05/06 14:43:38;;;;;;;18.75;4.38;;;23.80;56.40;;;;;;5092537;28;20073;-56
2021/05/06 14:46:05;;;;;;;26.30;4.95;;;24.00;56.10;;;;;;5093199;28;20069;-57
2021/05/06 14:48:32;;;;;;;27.08;5.07;;;24.20;55.70;;;;;;5096446;28;20112;-55
2021/05/06 14:50:59;;;;;;;19.25;4.43;;;24.40;55.10;;;;;;5095693;28;20099;-57
2021/05/06 14:53:29;;;;;;;25.13;5.22;;;24.70;54.50;;;;;;5102122;28;20084;-57
2021/05/06 14:55:57;;;;;;;33.60;4.97;;;24.80;53.40;;;;;;5097433;28;20072;-55
2021/05/06 14:58:26;;;;;;;25.65;5.28;;;25.20;52.60;;;;;;5091940;28;20558;-57
2021/05/06 15:00:53;;;;;;;27.50;4.78;;;25.50;52.00;;;;;;5097303;28;20141;-57
2021/05/06 15:03:20;;;;;;;32.70;5.00;;;25.60;51.50;;;;;;5096746;28;20188;-57
2021/05/06 15:05:47;;;;;;;29.75;5.20;;;25.90;50.50;;;;;;5093907;28;20077;-57
2021/05/06 15:08:13;;;;;;;33.67;5.35;;;26.10;50.00;;;;;;5093729;28;20096;-56
2021/05/06 15:10:40;;;;;;;24.00;5.57;;;26.20;49.50;;;;;;5096600;28;20068;-57
2021/05/06 15:13:06;;;;;;;43.47;5.97;;;26.30;49.10;;;;;;5095128;28;20076;-58
2021/05/06 15:15:33;;;;;;;34.17;6.03;;;26.50;48.70;;;;;;5096625;28;20072;-58
2021/05/06 15:18:00;;;;;;;35.88;6.13;;;26.70;48.60;;;;;;5096537;28;20414;-57
2021/05/06 15:20:26;;;;;;;32.83;6.22;;;26.90;48.60;;;;;;5096316;28;20075;-57
2021/05/06 15:22:54;;;;;;;36.42;6.00;;;27.10;48.70;;;;;;5091720;28;20068;-59
2021/05/06 15:25:24;;;;;;;38.83;5.70;;;27.20;48.70;;;;;;5095218;28;20459;-55
2021/05/06 15:27:51;;;;;;;30.27;7.03;;;27.40;48.20;;;;;;5093267;28;20126;-57
2021/05/06 15:30:21;;;;;;;43.42;6.18;;;27.60;47.80;;;;;;5096181;28;20464;-58
2021/05/06 15:32:48;;;;;;;33.97;6.70;;;27.90;47.40;;;;;;5079325;28;20080;-59
2021/05/06 15:35:17;;;;;;;32.03;6.03;;;28.10;46.90;;;;;;5092869;28;20522;-56
2021/05/06 15:37:45;;;;;;;35.40;5.70;;;28.40;46.90;;;;;;5074582;28;20115;-57
2021/05/06 15:40:16;;;;;;;27.15;6.22;;;28.50;46.80;;;;;;5073003;28;20085;-58
2021/05/06 15:42:44;;;;;;;32.25;6.90;;;28.80;46.20;;;;;;5092012;28;20065;-58
2021/05/06 15:45:11;;;;;;;42.30;7.38;;;29.10;45.50;;;;;;5090171;28;20064;-57
2021/05/06 15:47:39;;;;;;;32.22;7.88;;;29.10;44.90;;;;;;5093191;28;21091;-59
2021/05/06 15:50:08;;;;;;;35.70;8.38;;;29.30;44.70;;;;;;5095645;28;20080;-58
2021/05/06 15:52:35;;;;;;;39.45;6.75;;;29.60;44.30;;;;;;5089879;28;20076;-59
2021/05/06 15:55:03;;;;;;;36.40;6.82;;;29.80;42.80;;;;;;5095226;28;20095;-66
2021/05/06 15:57:30;;;;;;;23.40;5.15;;;29.90;42.10;;;;;;5096386;28;20525;-65
2021/05/06 15:59:57;;;;;;;39.13;6.35;;;30.00;41.80;;;;;;5087447;28;20572;-66
2021/05/06 16:02:25;;;;;;;33.35;6.88;;;30.30;40.90;;;;;;5076771;28;20076;-65
2021/05/06 16:04:54;;;;;;;29.95;6.50;;;30.20;41.60;;;;;;5073694;28;20077;-64
2021/05/06 16:07:21;;;;;;;32.63;6.65;;;30.40;41.50;;;;;;5094742;28;20981;-64
2021/05/06 16:09:48;;;;;;;47.28;7.45;;;30.80;41.30;;;;;;5074777;28;20076;-65